createdAt,value
2022-12-06T00:00:10.148Z,12.38
2022-12-06T00:00:22.082Z,12.30
2022-12-06T00:00:33.996Z,10.73
2022-12-06T00:00:46.054Z,10.18
2022-12-06T00:01:09.155Z,10.38
2022-12-06T00:01:26.585Z,12.43
2022-12-06T00:01:41.278Z,12.02
2022-12-06T00:01:53.305Z,11.48
2022-12-06T00:02:05.300Z,12.15
2022-12-06T00:02:17.313Z,12.05
2022-12-06T00:02:29.384Z,12.02
2022-12-06T00:02:41.335Z,12.25
2022-12-06T00:02:53.624Z,12.45
2022-12-06T00:03:05.892Z,12.02
2022-12-06T00:03:18.097Z,11.50
2022-12-06T00:03:30.155Z,12.05
2022-12-06T00:03:43.834Z,12.05
2022-12-06T00:03:57.775Z,11.48
2022-12-06T00:04:15.054Z,10.88
2022-12-06T00:04:27.000Z,12.13
2022-12-06T00:04:38.931Z,12.77
2022-12-06T00:04:50.799Z,11.98
2022-12-06T00:05:02.827Z,11.73
2022-12-06T00:05:14.865Z,12.43
2022-12-06T00:05:26.769Z,13.00
2022-12-06T00:05:41.867Z,12.68
2022-12-06T00:06:02.582Z,12.40
2022-12-06T00:06:19.984Z,14.55
2022-12-06T00:06:36.290Z,14.43
2022-12-06T00:06:51.434Z,13.57
2022-12-06T00:07:03.445Z,13.52
2022-12-06T00:07:15.362Z,13.32
2022-12-06T00:07:27.300Z,14.25
2022-12-06T00:07:39.723Z,13.50
2022-12-06T00:07:51.736Z,13.20
2022-12-06T00:08:03.947Z,12.93
2022-12-06T00:08:16.141Z,12.70
2022-12-06T00:08:28.144Z,12.23
2022-12-06T00:08:40.439Z,11.88
2022-12-06T00:08:52.646Z,12.43
2022-12-06T00:09:04.670Z,14.63
2022-12-06T00:09:36.819Z,14.48
2022-12-06T00:09:48.767Z,10.98
2022-12-06T00:10:01.001Z,13.57
2022-12-06T00:10:13.179Z,14.35
2022-12-06T00:10:25.817Z,11.63
2022-12-06T00:10:37.769Z,12.63
2022-12-06T00:10:50.099Z,12.88
2022-12-06T00:11:14.001Z,13.25
2022-12-06T00:11:31.917Z,12.93
2022-12-06T00:11:43.849Z,11.82
2022-12-06T00:11:56.908Z,13.00
2022-12-06T00:12:08.925Z,13.43
2022-12-06T00:12:20.862Z,13.30
2022-12-06T00:12:32.795Z,13.15
2022-12-06T00:12:44.690Z,12.98
2022-12-06T00:12:56.572Z,12.55
2022-12-06T00:13:08.513Z,11.90
2022-12-06T00:13:20.451Z,11.07
2022-12-06T00:13:32.464Z,11.52
2022-12-06T00:13:44.909Z,11.77
2022-12-06T00:14:02.141Z,11.02
2022-12-06T00:14:14.764Z,10.73
2022-12-06T00:14:27.196Z,11.35
2022-12-06T00:14:39.082Z,11.32
2022-12-06T00:14:50.956Z,11.68
2022-12-06T00:15:03.012Z,11.73
2022-12-06T00:15:15.014Z,11.18
2022-12-06T00:15:26.869Z,16.67
2022-12-06T00:15:38.742Z,16.27
2022-12-06T00:15:50.661Z,11.05
2022-12-06T00:16:04.267Z,10.68
2022-12-06T00:16:17.330Z,11.50
2022-12-06T00:16:30.134Z,11.52
2022-12-06T00:16:42.094Z,11.18
2022-12-06T00:16:54.321Z,11.27
2022-12-06T00:17:06.299Z,11.52
2022-12-06T00:17:18.230Z,9.82
2022-12-06T00:17:33.003Z,10.50
2022-12-06T00:17:44.901Z,12.27
2022-12-06T00:17:56.861Z,13.80
2022-12-06T00:18:08.731Z,12.45
2022-12-06T00:18:20.664Z,12.48
2022-12-06T00:18:34.429Z,11.17
2022-12-06T00:18:47.988Z,11.93
2022-12-06T00:19:01.060Z,12.25
2022-12-06T00:19:14.635Z,11.63
2022-12-06T00:19:26.558Z,11.73
2022-12-06T00:19:38.516Z,12.13
2022-12-06T00:19:50.416Z,11.90
2022-12-06T00:20:02.493Z,11.52
2022-12-06T00:20:14.480Z,11.68
2022-12-06T00:20:26.391Z,12.15
2022-12-06T00:20:38.714Z,12.77
2022-12-06T00:20:50.605Z,12.85
2022-12-06T00:21:10.238Z,13.02
2022-12-06T00:21:28.220Z,11.15
2022-12-06T00:21:40.597Z,12.07
2022-12-06T00:21:52.548Z,13.63
2022-12-06T00:22:04.462Z,12.90
2022-12-06T00:22:16.337Z,12.15
2022-12-06T00:22:28.206Z,11.00
2022-12-06T00:22:45.010Z,11.20
2022-12-06T00:22:57.201Z,11.57
2022-12-06T00:23:09.065Z,11.68
2022-12-06T00:23:20.948Z,11.70
2022-12-06T00:23:36.110Z,11.75
2022-12-06T00:23:50.694Z,11.63
2022-12-06T00:24:22.202Z,11.25
2022-12-06T00:24:34.333Z,10.35
2022-12-06T00:24:46.235Z,10.68
2022-12-06T00:24:58.151Z,10.95
2022-12-06T00:25:10.039Z,11.20
2022-12-06T00:25:21.962Z,11.35
2022-12-06T00:25:35.815Z,11.40
2022-12-06T00:25:47.758Z,10.82
2022-12-06T00:26:01.166Z,9.48
2022-12-06T00:26:14.193Z,10.05
2022-12-06T00:26:26.246Z,12.98
2022-12-06T00:26:41.457Z,13.68
2022-12-06T00:26:53.500Z,12.15
2022-12-06T00:27:05.380Z,11.23
2022-12-06T00:27:17.269Z,11.57
2022-12-06T00:27:29.175Z,11.05
2022-12-06T00:27:41.079Z,11.77
2022-12-06T00:27:53.018Z,12.40
2022-12-06T00:28:05.111Z,11.73
2022-12-06T00:28:16.990Z,11.07
2022-12-06T00:28:29.006Z,10.45
2022-12-06T00:28:41.445Z,10.85
2022-12-06T00:28:55.744Z,10.75
2022-12-06T00:29:08.773Z,10.85
2022-12-06T00:29:22.976Z,11.45
2022-12-06T00:29:34.976Z,11.65
2022-12-06T00:29:46.850Z,11.65
2022-12-06T00:29:59.083Z,10.98
2022-12-06T00:30:11.365Z,11.00
2022-12-06T00:30:23.317Z,10.23
2022-12-06T00:30:35.227Z,10.07
2022-12-06T00:30:47.198Z,10.75
2022-12-06T00:31:00.757Z,11.20
2022-12-06T00:31:16.214Z,11.75
2022-12-06T00:31:30.386Z,11.98
2022-12-06T00:31:42.640Z,12.35
2022-12-06T00:31:54.652Z,11.85
2022-12-06T00:32:06.674Z,10.73
2022-12-06T00:32:19.798Z,11.32
2022-12-06T00:32:31.939Z,12.05
2022-12-06T00:32:43.848Z,12.57
2022-12-06T00:32:55.738Z,12.52
2022-12-06T00:33:07.616Z,10.07
2022-12-06T00:33:19.483Z,11.77
2022-12-06T00:33:31.601Z,12.50
2022-12-06T00:33:43.710Z,12.82
2022-12-06T00:33:55.839Z,11.82
2022-12-06T00:34:07.855Z,12.75
2022-12-06T00:34:19.903Z,13.00
2022-12-06T00:34:31.826Z,12.85
2022-12-06T00:34:43.699Z,11.60
2022-12-06T00:34:55.626Z,12.52
2022-12-06T00:35:07.658Z,11.90
2022-12-06T00:35:19.569Z,11.13
2022-12-06T00:35:31.486Z,11.25
2022-12-06T00:35:43.359Z,12.23
2022-12-06T00:35:59.711Z,12.85
2022-12-06T00:36:14.721Z,14.00
2022-12-06T00:36:30.288Z,13.23
2022-12-06T00:36:43.079Z,13.10
2022-12-06T00:36:55.043Z,13.98
2022-12-06T00:37:06.941Z,13.70
2022-12-06T00:37:18.855Z,11.30
2022-12-06T00:37:30.753Z,10.98
2022-12-06T00:37:42.721Z,11.25
2022-12-06T00:37:54.617Z,10.50
2022-12-06T00:38:06.519Z,10.20
2022-12-06T00:38:18.422Z,9.25
2022-12-06T00:38:30.582Z,9.40
2022-12-06T00:38:42.857Z,9.60
2022-12-06T00:38:55.426Z,9.75
2022-12-06T00:39:12.943Z,9.38
2022-12-06T00:39:24.847Z,9.05
2022-12-06T00:39:36.756Z,9.48
2022-12-06T00:39:48.685Z,9.63
2022-12-06T00:40:00.970Z,9.25
2022-12-06T00:40:13.021Z,9.80
2022-12-06T00:40:24.974Z,9.68
2022-12-06T00:40:36.991Z,9.50
2022-12-06T00:40:48.980Z,8.65
2022-12-06T00:41:21.259Z,9.18
2022-12-06T00:41:33.665Z,8.88
2022-12-06T00:41:45.668Z,9.07
2022-12-06T00:41:57.633Z,9.50
2022-12-06T00:42:09.509Z,9.10
2022-12-06T00:42:21.387Z,9.13
2022-12-06T00:42:33.256Z,9.43
2022-12-06T00:42:45.130Z,9.70
2022-12-06T00:42:57.054Z,10.98
2022-12-06T00:43:08.973Z,11.50
2022-12-06T00:43:20.852Z,10.68
2022-12-06T00:43:33.964Z,10.43
2022-12-06T00:43:45.938Z,10.25
2022-12-06T00:43:58.141Z,8.98
2022-12-06T00:44:10.913Z,8.95
2022-12-06T00:44:22.850Z,9.05
2022-12-06T00:44:34.798Z,9.82
2022-12-06T00:44:46.712Z,9.50
2022-12-06T00:44:58.730Z,8.85
2022-12-06T00:45:10.930Z,8.55
2022-12-06T00:45:22.855Z,8.57
2022-12-06T00:45:34.782Z,9.20
2022-12-06T00:45:46.703Z,9.55
2022-12-06T00:45:59.565Z,9.13
2022-12-06T00:46:17.789Z,9.40
2022-12-06T00:46:31.076Z,9.20
2022-12-06T00:46:43.051Z,9.65
2022-12-06T00:46:55.001Z,9.85
2022-12-06T00:47:06.887Z,9.93
2022-12-06T00:47:18.816Z,9.85
2022-12-06T00:47:30.702Z,9.02
2022-12-06T00:47:42.624Z,8.15
2022-12-06T00:47:54.509Z,7.60
2022-12-06T00:48:06.420Z,7.90
2022-12-06T00:48:18.358Z,8.15
2022-12-06T00:48:31.009Z,9.27
2022-12-06T00:48:44.165Z,10.27
2022-12-06T00:48:57.632Z,10.27
2022-12-06T00:49:09.781Z,9.85
2022-12-06T00:49:21.639Z,8.68
2022-12-06T00:49:33.569Z,8.48
2022-12-06T00:49:45.491Z,8.82
2022-12-06T00:49:57.887Z,8.85
2022-12-06T00:50:10.597Z,8.43
2022-12-06T00:50:22.512Z,8.60
2022-12-06T00:50:34.533Z,8.82
2022-12-06T00:50:46.423Z,8.40
2022-12-06T00:50:58.441Z,7.90
2022-12-06T00:51:11.028Z,7.85
2022-12-06T00:51:24.850Z,8.90
2022-12-06T00:51:37.766Z,8.93
2022-12-06T00:51:49.655Z,8.82
2022-12-06T00:52:01.639Z,8.52
2022-12-06T00:52:13.791Z,8.82
2022-12-06T00:52:25.775Z,8.95
2022-12-06T00:52:37.653Z,8.88
2022-12-06T00:52:49.531Z,9.10
2022-12-06T00:53:01.391Z,8.90
2022-12-06T00:53:13.299Z,8.77
2022-12-06T00:53:26.090Z,8.98
2022-12-06T00:53:38.334Z,9.00
2022-12-06T00:53:50.849Z,8.88
2022-12-06T00:54:03.839Z,8.55
2022-12-06T00:54:16.099Z,7.95
2022-12-06T00:54:28.014Z,8.13
2022-12-06T00:54:39.905Z,8.60
2022-12-06T00:54:51.922Z,9.57
2022-12-06T00:55:03.958Z,9.57
2022-12-06T00:55:15.910Z,10.90
2022-12-06T00:55:27.794Z,9.10
2022-12-06T00:55:39.658Z,8.85
2022-12-06T00:55:51.914Z,7.88
2022-12-06T00:56:04.369Z,7.82
2022-12-06T00:56:17.312Z,8.40
2022-12-06T00:56:29.702Z,9.18
2022-12-06T00:56:41.577Z,10.07
2022-12-06T00:56:53.516Z,10.02
2022-12-06T00:57:05.390Z,10.30
2022-12-06T00:57:17.380Z,10.20
2022-12-06T00:57:29.261Z,10.10
2022-12-06T00:57:41.195Z,10.93
2022-12-06T00:57:53.065Z,12.25
2022-12-06T00:58:04.962Z,11.95
2022-12-06T00:58:17.669Z,9.13
2022-12-06T00:58:30.049Z,9.73
2022-12-06T00:58:42.513Z,9.02
2022-12-06T00:58:54.692Z,8.23
2022-12-06T00:59:07.021Z,9.55
2022-12-06T00:59:18.923Z,10.77
2022-12-06T00:59:30.807Z,10.20
2022-12-06T00:59:42.686Z,8.95
2022-12-06T00:59:54.607Z,8.57
2022-12-06T01:00:07.249Z,8.07
2022-12-06T01:00:19.611Z,7.53
2022-12-06T01:00:31.810Z,8.75
2022-12-06T01:00:44.182Z,9.80
2022-12-06T01:00:56.326Z,9.30
2022-12-06T01:01:27.749Z,9.63
2022-12-06T01:01:41.117Z,8.98
2022-12-06T01:01:53.081Z,8.13
2022-12-06T01:02:07.142Z,8.55
2022-12-06T01:02:19.092Z,8.52
2022-12-06T01:02:31.018Z,8.52
2022-12-06T01:02:42.981Z,8.63
2022-12-06T01:02:54.975Z,9.00
2022-12-06T01:03:08.149Z,8.77
2022-12-06T01:03:20.141Z,9.07
2022-12-06T01:03:35.115Z,9.48
2022-12-06T01:03:53.236Z,9.52
2022-12-06T01:04:07.134Z,9.35
2022-12-06T01:04:19.052Z,9.23
2022-12-06T01:04:31.002Z,8.88
2022-12-06T01:04:43.057Z,9.23
2022-12-06T01:04:54.962Z,11.10
2022-12-06T01:05:07.786Z,11.40
2022-12-06T01:05:19.698Z,11.50
2022-12-06T01:05:31.663Z,10.45
2022-12-06T01:05:45.926Z,9.30
2022-12-06T01:05:57.860Z,9.48
2022-12-06T01:06:12.811Z,8.88
2022-12-06T01:06:28.608Z,9.15
2022-12-06T01:06:40.572Z,10.60
2022-12-06T01:06:52.462Z,15.35
2022-12-06T01:07:04.350Z,25.92
2022-12-06T01:07:16.277Z,32.75
2022-12-06T01:07:28.201Z,27.85
2022-12-06T01:07:40.163Z,22.13
2022-12-06T01:07:52.216Z,17.35
2022-12-06T01:08:04.474Z,14.00
2022-12-06T01:08:18.042Z,13.05
2022-12-06T01:08:30.069Z,11.70
2022-12-06T01:08:43.334Z,10.55
2022-12-06T01:08:57.247Z,10.07
2022-12-06T01:09:13.998Z,10.63
2022-12-06T01:09:25.881Z,10.82
2022-12-06T01:09:37.792Z,9.85
2022-12-06T01:09:49.654Z,9.40
2022-12-06T01:10:01.724Z,8.25
2022-12-06T01:10:14.012Z,7.80
2022-12-06T01:10:26.076Z,8.00
2022-12-06T01:10:38.977Z,7.97
2022-12-06T01:10:53.055Z,8.27
2022-12-06T01:11:06.408Z,8.40
2022-12-06T01:11:18.360Z,9.13
2022-12-06T01:11:30.406Z,9.30
2022-12-06T01:11:42.353Z,9.70
2022-12-06T01:11:54.294Z,9.15
2022-12-06T01:12:06.330Z,8.50
2022-12-06T01:12:18.241Z,8.30
2022-12-06T01:12:30.180Z,8.40
2022-12-06T01:12:42.032Z,8.07
2022-12-06T01:12:53.897Z,8.38
2022-12-06T01:13:06.766Z,9.70
2022-12-06T01:13:18.768Z,9.68
2022-12-06T01:13:30.767Z,9.55
2022-12-06T01:13:43.254Z,9.05
2022-12-06T01:13:55.777Z,9.57
2022-12-06T01:14:07.976Z,9.70
2022-12-06T01:14:19.835Z,7.97
2022-12-06T01:14:31.717Z,8.10
2022-12-06T01:14:43.570Z,8.60
2022-12-06T01:14:55.500Z,8.60
2022-12-06T01:15:08.569Z,8.70
2022-12-06T01:15:20.431Z,8.55
2022-12-06T01:15:32.719Z,8.93
2022-12-06T01:15:44.658Z,9.23
2022-12-06T01:15:57.475Z,9.07
2022-12-06T01:16:12.404Z,8.80
2022-12-06T01:16:27.451Z,10.05
2022-12-06T01:16:39.530Z,10.35
2022-12-06T01:16:51.559Z,10.82
2022-12-06T01:17:03.650Z,9.45
2022-12-06T01:17:15.581Z,9.18
2022-12-06T01:17:27.498Z,9.45
2022-12-06T01:17:39.749Z,10.23
2022-12-06T01:17:51.678Z,10.45
2022-12-06T01:18:04.150Z,9.10
2022-12-06T01:18:16.526Z,8.65
2022-12-06T01:18:28.472Z,8.73
2022-12-06T01:18:41.697Z,10.23
2022-12-06T01:18:58.077Z,9.50
2022-12-06T01:19:12.453Z,7.93
2022-12-06T01:19:24.374Z,8.57
2022-12-06T01:19:36.254Z,9.30
2022-12-06T01:19:49.793Z,9.15
2022-12-06T01:20:01.912Z,8.95
2022-12-06T01:20:14.165Z,8.77
2022-12-06T01:20:26.126Z,8.65
2022-12-06T01:20:37.982Z,9.25
2022-12-06T01:20:49.920Z,10.27
2022-12-06T01:21:09.912Z,9.45
2022-12-06T01:21:22.819Z,8.07
2022-12-06T01:21:34.994Z,10.13
2022-12-06T01:21:49.150Z,10.57
2022-12-06T01:22:01.153Z,9.52
2022-12-06T01:22:13.063Z,9.57
2022-12-06T01:22:24.957Z,9.23
2022-12-06T01:22:36.863Z,8.88
2022-12-06T01:22:48.750Z,8.57
2022-12-06T01:23:00.671Z,9.45
2022-12-06T01:23:13.564Z,9.38
2022-12-06T01:23:25.447Z,9.13
2022-12-06T01:23:37.579Z,9.88
2022-12-06T01:23:49.658Z,9.77
2022-12-06T01:24:01.588Z,8.48
2022-12-06T01:24:13.556Z,7.78
2022-12-06T01:24:25.502Z,8.18
2022-12-06T01:24:37.432Z,9.50
2022-12-06T01:24:49.355Z,10.13
2022-12-06T01:25:01.257Z,9.32
2022-12-06T01:25:13.158Z,8.95
2022-12-06T01:25:26.286Z,9.00
2022-12-06T01:25:38.776Z,9.13
2022-12-06T01:25:51.966Z,9.80
2022-12-06T01:26:05.918Z,9.60
2022-12-06T01:26:24.987Z,9.82
2022-12-06T01:26:36.961Z,10.70
2022-12-06T01:26:48.943Z,10.82
2022-12-06T01:27:00.887Z,10.50
2022-12-06T01:27:12.755Z,10.13
2022-12-06T01:27:24.662Z,11.25
2022-12-06T01:27:36.998Z,10.68
2022-12-06T01:27:48.870Z,10.73
2022-12-06T01:28:00.750Z,9.18
2022-12-06T01:28:12.673Z,10.30
2022-12-06T01:28:24.610Z,10.03
2022-12-06T01:28:36.546Z,9.85
2022-12-06T01:28:48.618Z,9.77
2022-12-06T01:29:01.096Z,9.50
2022-12-06T01:29:13.027Z,9.18
2022-12-06T01:29:25.014Z,9.20
2022-12-06T01:29:36.995Z,9.80
2022-12-06T01:29:48.921Z,9.70
2022-12-06T01:30:01.129Z,8.95
2022-12-06T01:30:13.328Z,9.73
2022-12-06T01:30:26.138Z,9.55
2022-12-06T01:30:39.883Z,8.90
2022-12-06T01:30:52.009Z,9.02
2022-12-06T01:31:07.821Z,9.27
2022-12-06T01:31:20.514Z,9.50
2022-12-06T01:31:38.221Z,9.73
2022-12-06T01:31:51.151Z,9.57
2022-12-06T01:32:03.100Z,9.63
2022-12-06T01:32:15.153Z,9.52
2022-12-06T01:32:29.104Z,9.68
2022-12-06T01:32:41.028Z,10.00
2022-12-06T01:32:52.945Z,10.27
2022-12-06T01:33:04.810Z,10.80
2022-12-06T01:33:16.693Z,11.95
2022-12-06T01:33:28.601Z,11.48
2022-12-06T01:33:40.680Z,10.00
2022-12-06T01:33:52.570Z,10.27
2022-12-06T01:34:04.942Z,10.75
2022-12-06T01:34:17.397Z,10.73
2022-12-06T01:34:29.298Z,10.98
2022-12-06T01:34:41.335Z,10.50
2022-12-06T01:34:53.587Z,10.98
2022-12-06T01:35:06.101Z,10.18
2022-12-06T01:35:18.143Z,10.00
2022-12-06T01:35:30.073Z,10.68
2022-12-06T01:35:42.726Z,11.30
2022-12-06T01:35:54.690Z,12.15
2022-12-06T01:36:07.038Z,10.77
2022-12-06T01:36:21.686Z,9.55
2022-12-06T01:36:33.720Z,9.52
2022-12-06T01:36:45.760Z,9.95
2022-12-06T01:36:57.664Z,9.98
2022-12-06T01:37:09.551Z,9.40
2022-12-06T01:37:21.814Z,10.05
2022-12-06T01:37:33.868Z,10.25
2022-12-06T01:37:45.831Z,9.95
2022-12-06T01:38:01.650Z,11.40
2022-12-06T01:38:16.455Z,12.35
2022-12-06T01:38:28.346Z,11.07
2022-12-06T01:38:40.234Z,9.68
2022-12-06T01:38:57.847Z,9.90
2022-12-06T01:39:10.497Z,10.02
2022-12-06T01:39:22.562Z,9.52
2022-12-06T01:39:34.513Z,8.75
2022-12-06T01:39:46.549Z,9.43
2022-12-06T01:39:58.678Z,9.75
2022-12-06T01:40:12.128Z,9.38
2022-12-06T01:40:24.026Z,9.75
2022-12-06T01:40:47.501Z,9.27
2022-12-06T01:40:59.819Z,8.82
2022-12-06T01:41:11.800Z,9.88
2022-12-06T01:41:25.733Z,10.60
2022-12-06T01:41:38.461Z,10.15
2022-12-06T01:41:50.389Z,9.55
2022-12-06T01:42:02.272Z,10.57
2022-12-06T01:42:15.817Z,10.35
2022-12-06T01:42:27.747Z,10.15
2022-12-06T01:42:39.689Z,9.88
2022-12-06T01:42:51.597Z,9.55
2022-12-06T01:43:03.487Z,10.07
2022-12-06T01:43:36.436Z,9.43
2022-12-06T01:43:49.029Z,8.32
2022-12-06T01:44:00.914Z,9.52
2022-12-06T01:44:43.695Z,10.50
2022-12-06T01:44:58.133Z,8.20
2022-12-06T01:45:10.459Z,8.52
2022-12-06T01:45:22.448Z,8.88
2022-12-06T01:45:34.427Z,9.30
2022-12-06T01:45:46.383Z,10.00
2022-12-06T01:46:02.865Z,9.10
2022-12-06T01:46:36.455Z,8.90
2022-12-06T01:46:48.450Z,8.48
2022-12-06T01:47:00.489Z,8.65
2022-12-06T01:47:19.715Z,9.25
2022-12-06T01:47:41.454Z,9.40
2022-12-06T01:47:53.362Z,8.77
2022-12-06T01:48:05.398Z,9.10
2022-12-06T01:48:17.618Z,9.63
2022-12-06T01:48:29.617Z,11.30
2022-12-06T01:48:42.013Z,10.90
2022-12-06T01:49:12.563Z,8.90
2022-12-06T01:49:32.104Z,8.20
2022-12-06T01:49:48.546Z,7.88
2022-12-06T01:50:15.066Z,7.43
2022-12-06T01:50:32.798Z,7.68
2022-12-06T01:50:44.783Z,8.18
2022-12-06T01:50:58.941Z,9.93
2022-12-06T01:51:13.964Z,9.40
2022-12-06T01:51:26.890Z,8.02
2022-12-06T01:51:42.242Z,7.70
2022-12-06T01:52:00.394Z,7.63
2022-12-06T01:52:14.087Z,8.35
2022-12-06T01:52:31.410Z,8.75
2022-12-06T01:53:25.676Z,9.38
2022-12-06T01:53:39.223Z,8.25
2022-12-06T01:53:53.765Z,8.55
2022-12-06T01:54:10.647Z,7.90
2022-12-06T01:54:24.161Z,7.78
2022-12-06T01:54:37.014Z,8.32
2022-12-06T01:54:49.176Z,8.07
2022-12-06T01:55:02.617Z,8.00
2022-12-06T01:55:15.503Z,8.85
2022-12-06T01:55:30.849Z,9.40
2022-12-06T01:55:42.851Z,9.15
2022-12-06T01:55:54.793Z,9.80
2022-12-06T01:56:07.897Z,10.30
2022-12-06T01:56:21.015Z,8.95
2022-12-06T01:56:33.037Z,8.73
2022-12-06T01:56:45.994Z,8.73
2022-12-06T01:56:58.689Z,9.35
2022-12-06T01:57:13.732Z,8.55
2022-12-06T01:57:25.768Z,7.88
2022-12-06T01:57:37.693Z,8.20
2022-12-06T01:57:53.662Z,8.65
2022-12-06T01:58:17.886Z,9.05
2022-12-06T01:58:35.674Z,8.07
2022-12-06T01:58:50.804Z,8.60
2022-12-06T01:59:03.478Z,9.63
2022-12-06T01:59:16.108Z,10.88
2022-12-06T01:59:29.260Z,10.75
2022-12-06T01:59:41.322Z,10.68
2022-12-06T01:59:53.471Z,11.05
2022-12-06T02:00:06.275Z,10.17
2022-12-06T02:00:18.668Z,10.77
2022-12-06T02:00:30.645Z,11.40
2022-12-06T02:00:42.514Z,11.20
2022-12-06T02:00:54.568Z,11.05
2022-12-06T02:01:09.322Z,11.23
2022-12-06T02:01:21.606Z,11.90
2022-12-06T02:01:34.668Z,10.65
2022-12-06T02:01:47.862Z,12.98
2022-12-06T02:01:59.968Z,13.00
2022-12-06T02:02:12.585Z,10.20
2022-12-06T02:02:24.698Z,9.73
2022-12-06T02:02:36.808Z,10.65
2022-12-06T02:02:49.037Z,10.27
2022-12-06T02:03:02.996Z,9.65
2022-12-06T02:03:24.104Z,9.43
2022-12-06T02:03:36.800Z,10.10
2022-12-06T02:03:48.877Z,9.52
2022-12-06T02:04:02.233Z,9.13
2022-12-06T02:04:16.227Z,10.15
2022-12-06T02:04:30.463Z,10.07
2022-12-06T02:04:44.095Z,8.38
2022-12-06T02:04:56.720Z,8.52
2022-12-06T02:05:09.700Z,8.63
2022-12-06T02:05:21.683Z,9.57
2022-12-06T02:05:40.663Z,9.43
2022-12-06T02:05:53.553Z,8.13
2022-12-06T02:06:08.191Z,8.30
2022-12-06T02:06:20.953Z,8.77
2022-12-06T02:06:33.554Z,8.70
2022-12-06T02:06:46.487Z,9.35
2022-12-06T02:06:59.376Z,9.25
2022-12-06T02:07:12.193Z,9.02
2022-12-06T02:07:27.071Z,8.13
2022-12-06T02:07:40.671Z,9.68
2022-12-06T02:07:53.617Z,9.85
2022-12-06T02:08:08.313Z,7.90
2022-12-06T02:08:21.568Z,7.35
2022-12-06T02:08:34.792Z,8.95
2022-12-06T02:08:47.433Z,10.45
2022-12-06T02:09:01.897Z,9.75
2022-12-06T02:09:15.697Z,8.35
2022-12-06T02:09:29.482Z,7.55
2022-12-06T02:09:41.435Z,7.22
2022-12-06T02:09:54.615Z,6.95
2022-12-06T02:10:07.254Z,7.30
2022-12-06T02:10:19.169Z,8.05
2022-12-06T02:10:31.483Z,8.15
2022-12-06T02:10:43.414Z,8.68
2022-12-06T02:10:55.738Z,8.55
2022-12-06T02:11:08.761Z,7.60
2022-12-06T02:11:20.688Z,7.38
2022-12-06T02:11:35.507Z,7.00
2022-12-06T02:11:48.001Z,7.07
2022-12-06T02:11:59.938Z,7.88
2022-12-06T02:12:14.248Z,8.52
2022-12-06T02:12:26.389Z,8.90
2022-12-06T02:12:38.322Z,8.85
2022-12-06T02:12:55.073Z,8.70
2022-12-06T02:13:08.083Z,8.52
2022-12-06T02:13:21.900Z,8.30
2022-12-06T02:13:35.661Z,8.73
2022-12-06T02:13:47.885Z,9.15
2022-12-06T02:14:00.573Z,8.73
2022-12-06T02:14:17.023Z,7.85
2022-12-06T02:14:34.150Z,8.95
2022-12-06T02:14:50.319Z,9.15
2022-12-06T02:15:03.184Z,9.73
2022-12-06T02:15:15.328Z,9.98
2022-12-06T02:15:55.225Z,8.15
2022-12-06T02:17:00.874Z,8.48
2022-12-06T02:17:15.491Z,8.35
2022-12-06T02:17:37.311Z,7.80
2022-12-06T02:18:05.522Z,8.45
2022-12-06T02:18:26.615Z,7.25
2022-12-06T02:18:45.845Z,7.25
2022-12-06T02:19:18.315Z,7.93
2022-12-06T02:19:51.825Z,7.60
2022-12-06T02:20:22.337Z,8.93
2022-12-06T02:20:46.591Z,7.15
2022-12-06T02:21:27.084Z,7.35
2022-12-06T02:21:49.541Z,10.00
2022-12-06T02:22:10.281Z,8.85
2022-12-06T02:23:04.394Z,8.52
2022-12-06T02:23:35.131Z,8.10
2022-12-06T02:24:11.559Z,7.07
2022-12-06T02:24:48.165Z,8.50
2022-12-06T02:25:18.285Z,9.10
2022-12-06T02:25:54.299Z,6.88
2022-12-06T02:26:24.795Z,9.02
2022-12-06T02:26:44.933Z,8.10
2022-12-06T02:27:13.365Z,9.32
2022-12-06T02:27:37.137Z,9.02
2022-12-06T02:27:51.869Z,7.13
2022-12-06T02:28:39.716Z,7.05
2022-12-06T02:29:00.442Z,7.70
2022-12-06T02:29:18.198Z,8.65
2022-12-06T02:29:50.294Z,9.20
2022-12-06T02:30:12.123Z,8.23
2022-12-06T02:30:45.137Z,8.07
2022-12-06T02:31:13.083Z,7.28
2022-12-06T02:31:51.067Z,7.35
2022-12-06T02:32:13.282Z,8.10
2022-12-06T02:32:43.210Z,8.35
2022-12-06T02:33:05.638Z,8.27
2022-12-06T02:33:48.708Z,10.30
2022-12-06T02:34:12.381Z,8.27
2022-12-06T02:34:54.432Z,8.85
2022-12-06T02:35:21.157Z,8.23
2022-12-06T02:35:41.574Z,8.07
2022-12-06T02:36:02.677Z,6.97
2022-12-06T02:36:48.911Z,7.38
2022-12-06T02:37:00.785Z,9.88
2022-12-06T02:37:17.303Z,10.20
2022-12-06T02:37:44.194Z,7.25
2022-12-06T02:38:02.440Z,7.13
2022-12-06T02:38:29.762Z,7.35
2022-12-06T02:38:53.808Z,8.45
2022-12-06T02:39:11.996Z,8.65
2022-12-06T02:39:42.427Z,7.18
2022-12-06T02:40:08.209Z,7.22
2022-12-06T02:40:25.970Z,6.82
2022-12-06T02:40:45.456Z,7.60
2022-12-06T02:41:01.840Z,8.15
2022-12-06T02:41:27.242Z,8.55
2022-12-06T02:41:45.553Z,7.75
2022-12-06T02:42:03.941Z,8.57
2022-12-06T02:42:42.941Z,6.97
2022-12-06T02:43:00.701Z,6.90
2022-12-06T02:43:20.719Z,7.53
2022-12-06T02:43:40.433Z,7.45
2022-12-06T02:44:00.041Z,7.70
2022-12-06T02:44:20.580Z,8.18
2022-12-06T02:44:39.473Z,6.80
2022-12-06T02:44:58.370Z,7.30
2022-12-06T02:45:16.953Z,7.35
2022-12-06T02:45:32.018Z,8.05
2022-12-06T02:45:49.164Z,8.05
2022-12-06T02:46:04.272Z,8.80
2022-12-06T02:46:19.869Z,8.07
2022-12-06T02:46:36.455Z,7.47
2022-12-06T02:46:51.032Z,7.60
2022-12-06T02:47:06.213Z,8.02
2022-12-06T02:47:21.760Z,8.68
2022-12-06T02:47:36.639Z,8.48
2022-12-06T02:47:51.265Z,7.65
2022-12-06T02:48:04.920Z,7.43
2022-12-06T02:48:18.305Z,7.78
2022-12-06T02:48:33.454Z,8.07
2022-12-06T02:48:47.743Z,7.97
2022-12-06T02:49:03.284Z,7.03
2022-12-06T02:49:15.748Z,6.75
2022-12-06T02:49:31.390Z,7.25
2022-12-06T02:49:49.498Z,7.72
2022-12-06T02:50:05.358Z,7.00
2022-12-06T02:50:21.409Z,6.93
2022-12-06T02:50:39.061Z,7.60
2022-12-06T02:50:59.022Z,9.30
2022-12-06T02:51:15.456Z,7.63
2022-12-06T02:51:29.870Z,7.00
2022-12-06T02:51:42.826Z,7.45
2022-12-06T02:51:56.856Z,7.93
2022-12-06T02:52:08.858Z,8.23
2022-12-06T02:52:26.353Z,9.00
2022-12-06T02:52:43.038Z,8.50
2022-12-06T02:52:59.107Z,7.18
2022-12-06T02:53:17.100Z,7.50
2022-12-06T02:53:32.653Z,7.70
2022-12-06T02:53:51.892Z,8.40
2022-12-06T02:54:08.094Z,8.27
2022-12-06T02:54:22.362Z,7.35
2022-12-06T02:54:34.468Z,7.55
2022-12-06T02:54:48.288Z,7.78
2022-12-06T02:55:01.386Z,7.80
2022-12-06T02:55:15.613Z,7.78
2022-12-06T02:55:28.874Z,9.05
2022-12-06T02:55:41.588Z,8.90
2022-12-06T02:55:54.038Z,8.27
2022-12-06T02:56:06.133Z,8.40
2022-12-06T02:56:19.189Z,8.88
2022-12-06T02:56:32.898Z,9.25
2022-12-06T02:56:44.762Z,8.55
2022-12-06T02:56:56.640Z,8.80
2022-12-06T02:57:08.577Z,8.68
2022-12-06T02:57:33.030Z,9.10
2022-12-06T02:57:50.786Z,8.27
2022-12-06T02:58:02.896Z,9.13
2022-12-06T02:58:14.843Z,8.55
2022-12-06T02:58:26.802Z,7.95
2022-12-06T02:58:38.864Z,7.57
2022-12-06T02:58:50.759Z,7.20
2022-12-06T02:59:02.879Z,7.60
2022-12-06T02:59:14.738Z,7.65
2022-12-06T02:59:26.816Z,7.35
2022-12-06T02:59:38.746Z,7.82
2022-12-06T02:59:52.778Z,7.70
2022-12-06T03:00:42.413Z,8.00
2022-12-06T03:01:01.104Z,8.23
2022-12-06T03:01:20.427Z,8.60
2022-12-06T03:01:41.053Z,7.85
2022-12-06T03:01:57.783Z,8.20
2022-12-06T03:02:11.256Z,8.37
2022-12-06T03:02:24.098Z,8.50
2022-12-06T03:02:36.812Z,10.05
2022-12-06T03:02:48.939Z,10.02
2022-12-06T03:03:12.639Z,7.75
2022-12-06T03:03:40.981Z,7.63
2022-12-06T03:03:55.536Z,8.02
2022-12-06T03:04:33.777Z,8.32
2022-12-06T03:04:49.727Z,9.38
2022-12-06T03:05:27.309Z,8.48
2022-12-06T03:06:03.650Z,8.82
2022-12-06T03:06:40.680Z,7.18
2022-12-06T03:07:10.009Z,7.25
2022-12-06T03:07:33.950Z,6.82
2022-12-06T03:07:47.920Z,7.22
2022-12-06T03:08:05.802Z,7.18
2022-12-06T03:08:33.990Z,7.60
2022-12-06T03:09:02.948Z,7.80
2022-12-06T03:09:44.912Z,7.57
2022-12-06T03:10:25.974Z,8.57
2022-12-06T03:10:51.437Z,8.27
2022-12-06T03:11:03.890Z,7.90
2022-12-06T03:11:16.984Z,8.02
2022-12-06T03:12:00.786Z,8.70
2022-12-06T03:12:18.576Z,8.32
2022-12-06T03:12:38.894Z,7.80
2022-12-06T03:13:02.998Z,8.18
2022-12-06T03:13:38.290Z,7.35
2022-12-06T03:14:06.174Z,7.63
2022-12-06T03:14:23.359Z,8.93
2022-12-06T03:15:06.094Z,9.65
2022-12-06T03:15:29.535Z,8.90
2022-12-06T03:16:03.179Z,8.32
2022-12-06T03:16:26.951Z,7.50
2022-12-06T03:16:50.141Z,8.50
2022-12-06T03:17:09.632Z,8.85
2022-12-06T03:17:39.523Z,8.70
2022-12-06T03:17:59.755Z,7.53
2022-12-06T03:18:17.867Z,7.50
2022-12-06T03:18:33.434Z,7.25
2022-12-06T03:18:56.024Z,7.57
2022-12-06T03:19:22.936Z,7.28
2022-12-06T03:19:38.687Z,8.05